Time;durP1;ratioP1;P1;durP2;ratioP2;P2;SDS_P1;SDS_P2;PMS_P1;PMS_P2;Temp;Humidity;BMP_temperature;BMP_pressure;BME280_temperature;BME280_humidity;BME280_pressure;Samples;Min_cycle;Max_cycle;Signal;HPM_P1;HPM_P2
2022/07/21 00:01:10;;;;;;;0.00;0.00;;;21.90;47.10;;;;;;5043673;28;20264;-72
2022/07/21 00:03:36;;;;;;;0.00;0.00;;;21.90;47.40;;;;;;5044284;28;20030;-72
2022/07/21 00:06:03;;;;;;;0.00;0.00;;;21.90;47.40;;;;;;5051679;28;20395;-72
2022/07/21 00:08:29;;;;;;;0.00;0.00;;;22.00;46.60;;;;;;5054403;28;20032;-72
2022/07/21 00:10:55;;;;;;;0.00;0.00;;;22.10;46.80;;;;;;5054453;28;20678;-72
2022/07/21 00:13:21;;;;;;;0.00;0.00;;;22.10;46.10;;;;;;5055704;28;20553;-72
2022/07/21 00:15:48;;;;;;;0.00;0.00;;;22.20;46.20;;;;;;5055582;28;20071;-72
2022/07/21 00:18:16;;;;;;;0.00;0.00;;;22.30;48.10;;;;;;5054170;28;20475;-72
2022/07/21 00:20:42;;;;;;;0.00;0.00;;;22.40;46.70;;;;;;5052358;28;20036;-72
2022/07/21 00:23:09;;;;;;;0.00;0.00;;;22.60;46.00;;;;;;5057205;28;20023;-72
2022/07/21 00:25:35;;;;;;;0.00;0.00;;;22.70;45.90;;;;;;5055446;28;20029;-72
2022/07/21 00:28:03;;;;;;;0.00;0.00;;;22.90;45.10;;;;;;5054173;28;20036;-72
2022/07/21 00:30:29;;;;;;;0.00;0.00;;;23.10;44.40;;;;;;5037609;28;20037;-72
2022/07/21 00:32:55;;;;;;;0.00;0.00;;;23.30;46.40;;;;;;5055285;28;20033;-73
2022/07/21 00:35:22;;;;;;;0.10;0.10;;;23.50;46.70;;;;;;5053861;28;20087;-73
2022/07/21 00:37:48;;;;;;;0.00;0.00;;;23.50;47.00;;;;;;5055261;28;20017;-72
2022/07/21 00:40:15;;;;;;;0.00;0.00;;;23.70;46.50;;;;;;5050696;28;20021;-73
2022/07/21 00:42:42;;;;;;;0.00;0.00;;;24.50;46.10;;;;;;5050815;28;20119;-71
2022/07/21 00:45:10;;;;;;;0.00;0.00;;;25.50;43.10;;;;;;5044222;28;20053;-78
2022/07/21 00:47:36;;;;;;;0.10;0.10;;;26.20;43.50;;;;;;5049866;28;20033;-77
2022/07/21 00:50:07;;;;;;;0.00;0.00;;;26.90;43.50;;;;;;5067836;28;20029;-79
2022/07/21 00:52:33;;;;;;;0.00;0.00;;;28.00;41.60;;;;;;5039227;28;20095;-79
2022/07/21 00:55:03;;;;;;;0.00;0.00;;;28.80;40.30;;;;;;5048319;28;20035;-79
2022/07/21 00:57:29;;;;;;;0.00;0.00;;;29.60;40.70;;;;;;5057883;28;20065;-81
2022/07/21 00:59:55;;;;;;;0.00;0.00;;;29.80;38.50;;;;;;5056985;28;20083;-81
2022/07/21 01:02:21;;;;;;;0.00;0.00;;;30.50;37.70;;;;;;5056089;28;20034;-81
2022/07/21 01:04:47;;;;;;;0.00;0.00;;;31.40;35.30;;;;;;5056069;28;20029;-81
2022/07/21 01:07:15;;;;;;;0.00;0.00;;;32.00;35.20;;;;;;5055641;28;20079;-81
2022/07/21 01:09:42;;;;;;;4.25;2.63;;;32.20;34.30;;;;;;5054638;28;20043;-81
2022/07/21 01:12:08;;;;;;;0.00;0.00;;;32.70;33.00;;;;;;5054976;28;20025;-81
2022/07/21 01:14:34;;;;;;;0.00;0.00;;;33.10;32.70;;;;;;5055365;28;20499;-82
2022/07/21 01:17:02;;;;;;;0.13;0.13;;;33.60;32.30;;;;;;5053727;28;20036;-82
2022/07/21 01:19:28;;;;;;;0.00;0.00;;;33.30;32.00;;;;;;5053187;28;20384;-83
2022/07/21 01:21:54;;;;;;;0.00;0.00;;;33.80;31.50;;;;;;5058848;28;20025;-80
2022/07/21 01:24:20;;;;;;;0.00;0.00;;;34.30;30.90;;;;;;5058372;28;20116;-75
2022/07/21 01:26:50;;;;;;;0.00;0.00;;;34.30;30.70;;;;;;5064898;28;20052;-82
2022/07/21 01:29:17;;;;;;;0.00;0.00;;;34.20;31.00;;;;;;5078697;28;20017;-84
2022/07/21 01:31:45;;;;;;;0.28;0.28;;;34.00;31.10;;;;;;5067693;28;20036;-84
2022/07/21 01:34:12;;;;;;;0.00;0.00;;;33.80;31.30;;;;;;5060043;28;20033;-85
2022/07/21 01:36:38;;;;;;;0.00;0.00;;;33.70;31.60;;;;;;5059650;28;20387;-85
2022/07/21 01:41:52;;;;;;;0.00;0.00;;;33.10;31.10;;;;;;5055664;28;20051;-79
2022/07/21 01:44:18;;;;;;;0.10;0.10;;;33.20;32.30;;;;;;5054744;28;20025;-80
2022/07/21 01:46:47;;;;;;;0.00;0.00;;;33.40;30.00;;;;;;5055592;28;20490;-79
2022/07/21 01:49:15;;;;;;;14.50;3.70;;;33.60;32.20;;;;;;5054142;28;20029;-79
2022/07/21 01:51:41;;;;;;;0.00;0.00;;;33.90;30.40;;;;;;5053739;28;20098;-80
2022/07/21 01:54:09;;;;;;;3.70;3.50;;;33.90;30.50;;;;;;5048523;28;20080;-80
2022/07/21 01:56:37;;;;;;;0.00;0.00;;;34.30;29.00;;;;;;5058626;28;20419;-80
2022/07/21 01:59:04;;;;;;;0.00;0.00;;;34.30;29.50;;;;;;5051376;28;20029;-80
2022/07/21 02:01:31;;;;;;;0.00;0.00;;;34.50;29.80;;;;;;5051561;28;20023;-80
2022/07/21 02:04:00;;;;;;;0.00;0.00;;;34.60;28.60;;;;;;5053189;28;20087;-80
2022/07/21 02:06:26;;;;;;;0.00;0.00;;;35.20;29.80;;;;;;5054201;28;20079;-80
2022/07/21 02:08:52;;;;;;;2.38;0.65;;;35.70;28.40;;;;;;5054910;28;20021;-81
2022/07/21 02:11:19;;;;;;;1.15;0.52;;;35.40;29.00;;;;;;5053387;28;20017;-81
2022/07/21 02:13:45;;;;;;;0.00;0.00;;;34.90;27.90;;;;;;5054430;28;20036;-81
2022/07/21 02:16:12;;;;;;;0.00;0.00;;;35.00;28.80;;;;;;5054195;28;20083;-82
2022/07/21 02:18:40;;;;;;;0.15;0.15;;;36.10;29.20;;;;;;5054222;28;20021;-80
2022/07/21 02:21:06;;;;;;;0.00;0.00;;;35.60;27.60;;;;;;5072357;28;20032;-80
2022/07/21 02:23:33;;;;;;;0.00;0.00;;;35.80;27.90;;;;;;5055799;28;20037;-79
2022/07/21 02:25:59;;;;;;;0.00;0.00;;;35.70;32.00;;;;;;5062309;28;20048;-79
2022/07/21 02:28:29;;;;;;;0.38;0.38;;;36.20;31.60;;;;;;5047623;28;20352;-80
2022/07/21 02:30:55;;;;;;;0.65;0.20;;;37.20;29.40;;;;;;5044901;28;20033;-76
2022/07/21 02:33:21;;;;;;;0.05;0.03;;;36.60;27.30;;;;;;5047156;28;20029;-80
2022/07/21 02:35:48;;;;;;;0.08;0.05;;;36.30;25.90;;;;;;5046358;28;20028;-80
2022/07/21 02:38:14;;;;;;;0.00;0.00;;;36.10;25.70;;;;;;5044014;28;20018;-80
2022/07/21 02:40:40;;;;;;;0.10;0.10;;;35.70;25.40;;;;;;5045301;28;20021;-79
2022/07/21 02:43:06;;;;;;;0.68;0.68;;;36.10;25.90;;;;;;5048572;28;20029;-79
2022/07/21 02:45:33;;;;;;;0.20;0.20;;;37.00;25.20;;;;;;5052287;28;20029;-79
2022/07/21 02:48:10;;;;;;;0.17;0.15;;;37.20;25.10;;;;;;5051074;28;20392;-79
2022/07/21 02:50:41;;;;;;;0.00;0.00;;;37.30;24.50;;;;;;5053664;28;20021;-79
2022/07/21 02:53:19;;;;;;;1.35;1.35;;;37.50;25.00;;;;;;5051472;28;20487;-80
2022/07/21 02:55:49;;;;;;;0.00;0.00;;;38.70;24.10;;;;;;5052121;28;20032;-81
2022/07/21 02:58:28;;;;;;;0.00;0.00;;;39.20;24.70;;;;;;5058167;28;20092;-80
2022/07/21 03:00:57;;;;;;;0.10;0.10;;;39.80;23.90;;;;;;5043290;28;20495;-80
2022/07/21 03:03:25;;;;;;;0.00;0.00;;;39.30;23.90;;;;;;5044633;28;20021;-81
2022/07/21 03:05:51;;;;;;;0.15;0.15;;;39.20;23.50;;;;;;5047464;28;20039;-81
2022/07/21 03:08:19;;;;;;;7.13;2.75;;;39.60;26.20;;;;;;5048584;28;20024;-80
2022/07/21 03:10:45;;;;;;;0.00;0.00;;;38.50;29.70;;;;;;5049423;28;20028;-81
2022/07/21 03:13:11;;;;;;;5.38;5.10;;;39.20;29.10;;;;;;5052838;28;20036;-80
2022/07/21 03:15:38;;;;;;;0.47;0.47;;;38.40;29.30;;;;;;5047039;28;20035;-81
2022/07/21 03:18:05;;;;;;;1.95;1.85;;;37.20;30.10;;;;;;5053314;28;20099;-84
2022/07/21 03:20:36;;;;;;;0.60;0.60;;;37.70;29.90;;;;;;5043239;28;20048;-80
2022/07/21 03:23:03;;;;;;;24.08;2.33;;;37.40;31.40;;;;;;5057942;28;20013;-80
2022/07/21 03:25:30;;;;;;;0.05;0.05;;;37.40;29.40;;;;;;5067896;28;20032;-78
2022/07/21 03:28:01;;;;;;;23.08;5.20;;;37.30;30.70;;;;;;5060759;28;20021;-79
2022/07/21 03:30:28;;;;;;;0.75;0.38;;;37.40;29.50;;;;;;5052361;28;20605;-80
2022/07/21 03:33:06;;;;;;;4.47;4.25;;;37.50;29.40;;;;;;5049548;28;20033;-84
2022/07/21 03:35:32;;;;;;;0.00;0.00;;;36.40;29.80;;;;;;5050885;28;20033;-82
2022/07/21 03:38:00;;;;;;;0.00;0.00;;;37.20;30.00;;;;;;5040027;28;20476;-82
2022/07/21 03:40:35;;;;;;;0.05;0.05;;;37.70;29.80;;;;;;5051757;28;20048;-81
2022/07/21 03:43:04;;;;;;;0.65;0.65;;;37.90;30.00;;;;;;5054896;28;20028;-83
2022/07/21 03:45:31;;;;;;;0.10;0.05;;;38.50;28.60;;;;;;5052066;28;20033;-82
2022/07/21 03:47:59;;;;;;;0.00;0.00;;;38.50;27.10;;;;;;5050010;28;20033;-83
2022/07/21 03:50:26;;;;;;;0.00;0.00;;;39.00;26.80;;;;;;5051443;28;20025;-81
2022/07/21 03:52:53;;;;;;;0.10;0.10;;;38.00;27.00;;;;;;5046959;28;20041;-82
2022/07/21 03:55:19;;;;;;;1.80;1.65;;;36.30;28.40;;;;;;5041273;28;20040;-84
2022/07/21 03:57:49;;;;;;;0.00;0.00;;;35.80;28.90;;;;;;5046185;28;20032;-83
2022/07/21 04:00:24;;;;;;;0.00;0.00;;;34.90;28.30;;;;;;5049567;28;20053;-81
2022/07/21 04:02:50;;;;;;;0.17;0.17;;;35.20;27.70;;;;;;5056267;28;20021;-80
2022/07/21 04:05:18;;;;;;;0.00;0.00;;;35.00;26.50;;;;;;5056971;28;20052;-81
2022/07/21 04:07:46;;;;;;;0.00;0.00;;;35.00;26.00;;;;;;5060931;28;20086;-84
2022/07/21 04:10:15;;;;;;;0.43;0.43;;;34.00;28.10;;;;;;5058596;28;20021;-82
2022/07/21 04:12:41;;;;;;;0.00;0.00;;;33.90;28.00;;;;;;5062887;28;20076;-81
2022/07/21 04:15:09;;;;;;;0.20;0.13;;;33.80;26.80;;;;;;5061205;28;20025;-82
2022/07/21 04:17:36;;;;;;;0.00;0.00;;;33.70;27.90;;;;;;5073491;28;20028;-83
2022/07/21 04:20:03;;;;;;;0.00;0.00;;;33.80;28.60;;;;;;5075373;28;20025;-82
2022/07/21 04:22:29;;;;;;;0.10;0.10;;;33.70;29.20;;;;;;5076529;28;20025;-83
2022/07/21 04:24:55;;;;;;;0.00;0.00;;;33.30;28.90;;;;;;5072836;28;20020;-81
2022/07/21 04:27:22;;;;;;;0.00;0.00;;;33.20;28.70;;;;;;5053222;28;20493;-82
2022/07/21 04:29:48;;;;;;;0.03;0.03;;;33.30;29.40;;;;;;5052350;28;20498;-82
2022/07/21 04:32:14;;;;;;;0.03;0.03;;;33.40;29.50;;;;;;5050871;28;20412;-82
2022/07/21 04:34:40;;;;;;;0.00;0.00;;;33.40;29.20;;;;;;5055604;28;20118;-82
2022/07/21 04:37:06;;;;;;;0.10;0.10;;;32.80;29.70;;;;;;5052055;28;20022;-82
2022/07/21 04:39:32;;;;;;;1.17;1.17;;;32.70;30.60;;;;;;5056065;28;20071;-82
2022/07/21 04:41:58;;;;;;;0.00;0.00;;;32.50;32.00;;;;;;5068951;28;20044;-83
2022/07/21 04:44:24;;;;;;;1.27;1.27;;;32.60;30.60;;;;;;5051334;28;20036;-83
2022/07/21 04:46:50;;;;;;;0.17;0.17;;;32.60;30.60;;;;;;5049148;28;20052;-84
2022/07/21 04:49:16;;;;;;;1.02;1.02;;;32.70;29.70;;;;;;5045987;28;20025;-81
2022/07/21 04:51:42;;;;;;;2.03;1.92;;;32.60;30.00;;;;;;5049421;28;20020;-81
2022/07/21 04:54:09;;;;;;;21.23;1.13;;;32.50;29.50;;;;;;5049367;28;20047;-81
2022/07/21 04:56:35;;;;;;;2.20;0.47;;;32.70;28.50;;;;;;5059076;28;20111;-82
2022/07/21 04:59:02;;;;;;;0.15;0.15;;;32.90;27.50;;;;;;5054595;28;20025;-80
2022/07/21 05:01:29;;;;;;;0.00;0.00;;;32.90;27.90;;;;;;5063706;28;20008;-76
2022/07/21 05:03:55;;;;;;;0.93;0.88;;;33.00;27.70;;;;;;5067733;28;20021;-80
2022/07/21 05:06:21;;;;;;;0.20;0.10;;;32.90;26.60;;;;;;5053772;28;20024;-80
2022/07/21 05:08:47;;;;;;;0.00;0.00;;;33.10;26.10;;;;;;5063028;28;20029;-79
2022/07/21 05:11:14;;;;;;;1.25;0.93;;;33.00;27.00;;;;;;5063451;28;20063;-79
2022/07/21 05:13:40;;;;;;;0.08;0.08;;;33.00;26.70;;;;;;5054585;28;20029;-78
2022/07/21 05:16:06;;;;;;;0.00;0.00;;;32.80;27.30;;;;;;5057108;28;20132;-79
2022/07/21 05:18:33;;;;;;;2.40;1.42;;;32.80;27.90;;;;;;5057490;28;20075;-79
2022/07/21 05:20:59;;;;;;;0.00;0.00;;;32.90;28.50;;;;;;5051216;28;20029;-78
2022/07/21 05:23:25;;;;;;;2.60;2.40;;;33.20;28.40;;;;;;5050513;28;20060;-79
2022/07/21 05:25:51;;;;;;;4.07;2.97;;;33.50;28.00;;;;;;5052919;28;20090;-78
2022/07/21 05:28:17;;;;;;;18.30;4.47;;;33.20;28.10;;;;;;5053147;28;20033;-77
2022/07/21 05:30:43;;;;;;;1.27;1.27;;;33.30;28.00;;;;;;5049439;28;20118;-76
2022/07/21 05:33:09;;;;;;;1.27;1.27;;;33.20;28.80;;;;;;5048419;28;20025;-78
2022/07/21 05:35:35;;;;;;;1.05;0.82;;;33.20;28.40;;;;;;5050857;28;20464;-78
2022/07/21 05:38:02;;;;;;;0.00;0.00;;;33.10;28.10;;;;;;5059775;28;20029;-77
2022/07/21 05:40:28;;;;;;;0.00;0.00;;;33.30;28.40;;;;;;5059204;28;20025;-77
2022/07/21 05:42:54;;;;;;;0.20;0.10;;;33.50;28.10;;;;;;5047359;28;20028;-77
2022/07/21 05:45:20;;;;;;;0.00;0.00;;;33.50;27.90;;;;;;5050296;28;20039;-79
2022/07/21 05:47:46;;;;;;;0.00;0.00;;;33.50;27.90;;;;;;5052342;28;20037;-79
2022/07/21 05:50:13;;;;;;;0.00;0.00;;;33.30;27.90;;;;;;5052980;28;20028;-79
2022/07/21 05:52:39;;;;;;;2.20;1.48;;;33.30;27.80;;;;;;5049933;28;20095;-79
2022/07/21 05:55:06;;;;;;;0.00;0.00;;;33.20;27.50;;;;;;5049797;28;20029;-79
2022/07/21 05:57:32;;;;;;;0.00;0.00;;;33.10;28.10;;;;;;5051384;28;20133;-78
2022/07/21 05:59:58;;;;;;;0.60;0.20;;;33.20;27.50;;;;;;5051080;28;20033;-77
2022/07/21 06:02:25;;;;;;;0.00;0.00;;;33.50;27.30;;;;;;5047544;28;20028;-78
2022/07/21 06:04:52;;;;;;;0.00;0.00;;;33.50;27.90;;;;;;5052619;28;20545;-77
2022/07/21 06:07:18;;;;;;;0.00;0.00;;;33.60;27.60;;;;;;5050521;28;20029;-78
2022/07/21 06:09:44;;;;;;;0.32;0.10;;;33.70;27.70;;;;;;5054433;28;20112;-78
2022/07/21 06:12:10;;;;;;;0.00;0.00;;;33.50;27.80;;;;;;5050852;28;20029;-79
2022/07/21 06:14:36;;;;;;;0.00;0.00;;;33.40;27.80;;;;;;5051999;28;20028;-79
2022/07/21 06:17:02;;;;;;;0.00;0.00;;;33.50;27.80;;;;;;5049946;28;20025;-79
2022/07/21 06:19:28;;;;;;;0.38;0.38;;;33.70;27.80;;;;;;5047633;28;20022;-79
2022/07/21 06:21:54;;;;;;;4.75;2.25;;;33.90;28.10;;;;;;5057215;28;20036;-75
2022/07/21 06:24:22;;;;;;;0.05;0.05;;;33.90;27.40;;;;;;5051684;28;20356;-79
2022/07/21 06:26:48;;;;;;;0.03;0.03;;;33.90;28.80;;;;;;5048593;28;20037;-78
2022/07/21 06:29:18;;;;;;;0.28;0.28;;;33.90;27.90;;;;;;5055078;28;20078;-81
2022/07/21 06:31:44;;;;;;;0.00;0.00;;;33.90;27.30;;;;;;5050311;28;20048;-80
2022/07/21 06:34:10;;;;;;;2.38;2.30;;;33.80;27.40;;;;;;5052350;28;20064;-80
2022/07/21 06:36:36;;;;;;;0.00;0.00;;;33.90;27.40;;;;;;5061350;28;20032;-78
2022/07/21 06:39:03;;;;;;;0.38;0.38;;;34.00;28.10;;;;;;5066104;28;20021;-79
2022/07/21 06:41:32;;;;;;;0.63;0.63;;;33.80;28.40;;;;;;5080651;28;20021;-79
2022/07/21 06:43:58;;;;;;;0.00;0.00;;;33.80;28.30;;;;;;5056602;28;20021;-79
2022/07/21 06:46:24;;;;;;;0.00;0.00;;;33.80;28.50;;;;;;5059074;28;20089;-78
2022/07/21 06:48:51;;;;;;;0.00;0.00;;;34.00;27.90;;;;;;5062108;28;20542;-77
2022/07/21 06:51:17;;;;;;;0.00;0.00;;;33.90;28.50;;;;;;5054938;28;20017;-78
2022/07/21 06:54:20;;;;;;;0.40;0.40;;;34.10;28.20;;;;;;5048292;28;20045;-79
2022/07/21 06:56:46;;;;;;;0.00;0.00;;;34.30;28.30;;;;;;5048723;28;20079;-78
2022/07/21 06:59:12;;;;;;;0.00;0.00;;;34.40;28.50;;;;;;5047480;28;20029;-78
2022/07/21 07:01:38;;;;;;;0.00;0.00;;;34.50;27.30;;;;;;5051930;28;20039;-76
2022/07/21 07:04:04;;;;;;;0.00;0.00;;;34.60;27.10;;;;;;5050873;28;20035;-78
2022/07/21 07:06:45;;;;;;;12.43;1.38;;;34.80;26.90;;;;;;5048260;28;20534;-79
2022/07/21 07:09:11;;;;;;;0.00;0.00;;;34.50;27.50;;;;;;5048202;28;20479;-77
2022/07/21 07:11:39;;;;;;;0.00;0.00;;;34.10;28.20;;;;;;5048979;28;20025;-79
2022/07/21 07:14:05;;;;;;;0.00;0.00;;;34.30;28.10;;;;;;5044616;28;20168;-79
2022/07/21 07:16:31;;;;;;;0.00;0.00;;;34.60;27.70;;;;;;5049129;28;20031;-80
2022/07/21 07:18:57;;;;;;;0.98;0.35;;;34.80;26.70;;;;;;5055618;28;20056;-79
2022/07/21 07:21:23;;;;;;;0.10;0.10;;;34.60;27.50;;;;;;5064977;28;20103;-79
2022/07/21 07:23:49;;;;;;;0.13;0.00;;;34.60;26.30;;;;;;5067143;28;20100;-80
2022/07/21 07:26:15;;;;;;;1.48;1.48;;;34.50;27.50;;;;;;5061858;28;20068;-78
2022/07/21 07:28:41;;;;;;;0.00;0.00;;;34.70;28.20;;;;;;5054785;28;20025;-80
2022/07/21 07:31:07;;;;;;;8.00;1.25;;;34.60;28.40;;;;;;5053884;28;20116;-79
2022/07/21 07:33:33;;;;;;;0.00;0.00;;;34.40;28.60;;;;;;5048959;28;20120;-77
2022/07/21 07:35:59;;;;;;;0.00;0.00;;;34.10;28.60;;;;;;5048459;28;20124;-78
2022/07/21 07:38:25;;;;;;;0.90;0.20;;;34.50;28.30;;;;;;5045095;28;20021;-77
2022/07/21 07:40:51;;;;;;;0.00;0.00;;;34.50;26.30;;;;;;5049451;28;20104;-78
2022/07/21 07:43:17;;;;;;;0.60;0.32;;;34.50;25.70;;;;;;5046584;28;20119;-78
2022/07/21 07:45:43;;;;;;;0.47;0.43;;;34.80;25.90;;;;;;5046129;28;20483;-77
2022/07/21 07:48:10;;;;;;;0.00;0.00;;;34.80;26.40;;;;;;5050417;28;20514;-77
2022/07/21 07:50:36;;;;;;;0.15;0.00;;;35.10;26.30;;;;;;5047811;28;20028;-79
2022/07/21 07:53:02;;;;;;;0.00;0.00;;;35.10;27.30;;;;;;5052509;28;20048;-78
2022/07/21 07:55:28;;;;;;;0.00;0.00;;;35.20;26.90;;;;;;5050658;28;20545;-77
2022/07/21 07:57:54;;;;;;;0.00;0.00;;;35.50;26.40;;;;;;5049546;28;20501;-77
2022/07/21 08:00:20;;;;;;;0.25;0.25;;;35.60;26.70;;;;;;5049559;28;20057;-75
2022/07/21 08:02:47;;;;;;;0.00;0.00;;;35.50;26.90;;;;;;5054185;28;20032;-77
2022/07/21 08:05:13;;;;;;;0.20;0.10;;;35.40;27.00;;;;;;5049782;28;20032;-76
2022/07/21 08:07:40;;;;;;;0.55;0.55;;;35.30;26.80;;;;;;5051975;28;20091;-79
2022/07/21 08:10:08;;;;;;;0.00;0.00;;;35.30;27.20;;;;;;5052327;28;20164;-78
2022/07/21 08:12:35;;;;;;;0.68;0.65;;;35.10;26.40;;;;;;5048921;28;20039;-78
2022/07/21 08:26:15;;;;;;;0.00;0.00;;;35.40;25.70;;;;;;5123038;27;20344;-74
2022/07/21 08:28:41;;;;;;;0.03;0.03;;;35.70;26.10;;;;;;5104270;28;20027;-74
2022/07/21 08:31:07;;;;;;;0.63;0.63;;;35.80;25.90;;;;;;5103432;28;20390;-74
2022/07/21 08:33:33;;;;;;;1.40;0.73;;;35.80;25.80;;;;;;5103067;28;20038;-74
2022/07/21 08:35:59;;;;;;;0.00;0.00;;;36.20;25.60;;;;;;5100987;28;20019;-72
2022/07/21 08:38:25;;;;;;;0.00;0.00;;;36.10;25.80;;;;;;5099773;28;20567;-74
2022/07/21 08:40:52;;;;;;;2.20;2.05;;;36.10;26.10;;;;;;5102167;28;20110;-74
2022/07/21 08:43:18;;;;;;;0.13;0.13;;;36.40;26.00;;;;;;5102707;28;20024;-73
2022/07/21 08:45:44;;;;;;;1.52;1.42;;;36.50;25.60;;;;;;5098894;28;20915;-73
2022/07/21 08:48:10;;;;;;;0.57;0.57;;;36.00;25.60;;;;;;5104980;28;20023;-73
2022/07/21 08:50:38;;;;;;;0.00;0.00;;;35.90;26.40;;;;;;5103203;28;20282;-72
2022/07/21 08:53:05;;;;;;;0.00;0.00;;;35.50;25.80;;;;;;5102026;28;20119;-73
2022/07/21 08:55:34;;;;;;;0.10;0.10;;;35.70;25.90;;;;;;5099777;28;20449;-74
2022/07/21 08:58:00;;;;;;;0.00;0.00;;;36.00;25.40;;;;;;5097295;28;20042;-73
2022/07/21 09:00:27;;;;;;;0.00;0.00;;;36.00;25.40;;;;;;5089105;28;20028;-73
2022/07/21 09:03:29;;;;;;;0.00;0.00;;;36.10;25.20;;;;;;5102334;28;20098;-73
2022/07/21 09:06:12;;;;;;;0.00;0.00;;;36.30;25.60;;;;;;5026578;28;20503;-73
2022/07/21 09:08:39;;;;;;;0.10;0.10;;;36.40;25.30;;;;;;5089907;28;20044;-73
2022/07/21 09:11:09;;;;;;;0.00;0.00;;;36.30;25.30;;;;;;5099647;28;20024;-73
2022/07/21 09:13:36;;;;;;;9.77;9.02;;;36.50;25.20;;;;;;5100348;28;20035;-74
2022/07/21 09:16:02;;;;;;;0.40;0.20;;;36.30;24.40;;;;;;5102011;28;20019;-73
2022/07/21 09:18:29;;;;;;;0.00;0.00;;;36.30;24.50;;;;;;5099348;28;20043;-73
2022/07/21 09:20:57;;;;;;;0.15;0.15;;;36.40;25.00;;;;;;5099462;28;20432;-73
2022/07/21 09:23:24;;;;;;;0.00;0.00;;;36.60;25.10;;;;;;5097819;28;20324;-73
2022/07/21 09:25:53;;;;;;;0.00;0.00;;;36.80;24.30;;;;;;5091640;28;20055;-73
2022/07/21 09:28:37;;;;;;;0.00;0.00;;;36.80;24.50;;;;;;5085631;28;20046;-73
2022/07/21 09:31:09;;;;;;;0.00;0.00;;;36.90;24.50;;;;;;5088246;28;20154;-73
2022/07/21 09:33:44;;;;;;;0.00;0.00;;;36.80;24.10;;;;;;5097426;28;20545;-73
2022/07/21 09:36:12;;;;;;;0.00;0.00;;;36.50;24.00;;;;;;5085483;28;20095;-73
2022/07/21 09:38:57;;;;;;;0.17;0.10;;;36.30;24.00;;;;;;5081195;28;20524;-73
2022/07/21 09:41:25;;;;;;;0.00;0.00;;;36.40;24.30;;;;;;5086185;28;20056;-73
2022/07/21 09:43:54;;;;;;;0.05;0.03;;;36.30;24.90;;;;;;5085681;28;20111;-73
2022/07/21 09:46:28;;;;;;;1.20;1.20;;;36.40;24.70;;;;;;5083922;28;20023;-73
2022/07/21 09:48:57;;;;;;;0.38;0.32;;;36.50;24.50;;;;;;5088363;28;20035;-73
2022/07/21 09:51:25;;;;;;;0.00;0.00;;;36.40;24.40;;;;;;5088786;28;20021;-73
2022/07/21 09:53:54;;;;;;;0.75;0.45;;;36.10;23.80;;;;;;5087230;28;20036;-72
2022/07/21 09:56:21;;;;;;;0.10;0.10;;;36.20;24.00;;;;;;5082363;28;20046;-72
2022/07/21 09:58:50;;;;;;;0.75;0.75;;;36.20;24.20;;;;;;5087317;28;20378;-74
2022/07/21 10:01:16;;;;;;;0.13;0.05;;;36.30;24.60;;;;;;5089493;28;20422;-74
2022/07/21 10:03:45;;;;;;;0.10;0.10;;;36.40;24.80;;;;;;5088198;28;20657;-74
2022/07/21 10:06:11;;;;;;;0.00;0.00;;;36.20;24.20;;;;;;5083776;28;20020;-74
2022/07/21 10:08:38;;;;;;;7.22;0.85;;;36.00;24.60;;;;;;5089223;28;20685;-74
2022/07/21 10:22:04;;;;;;;0.00;0.00;;;36.10;24.40;;;;;;5122801;27;20470;-73
2022/07/21 10:24:31;;;;;;;0.00;0.00;;;35.80;24.70;;;;;;5102942;28;20077;-73
2022/07/21 10:27:08;;;;;;;0.15;0.10;;;35.80;24.80;;;;;;5104251;28;20026;-73
2022/07/21 10:29:56;;;;;;;0.00;0.00;;;36.00;24.60;;;;;;5107102;28;20032;-73
2022/07/21 10:32:27;;;;;;;0.00;0.00;;;36.10;24.90;;;;;;5107519;28;20043;-73
2022/07/21 10:34:55;;;;;;;0.00;0.00;;;36.10;24.60;;;;;;5107670;28;20027;-73
2022/07/21 10:37:39;;;;;;;0.00;0.00;;;36.10;24.70;;;;;;5108822;28;20036;-74
2022/07/21 10:40:25;;;;;;;0.00;0.00;;;36.10;24.80;;;;;;5110087;28;20393;-72
2022/07/21 10:43:00;;;;;;;0.17;0.17;;;36.00;24.50;;;;;;5103242;28;20119;-73
2022/07/21 10:45:38;;;;;;;0.00;0.00;;;36.00;24.80;;;;;;5105780;28;20031;-73
2022/07/21 10:48:06;;;;;;;0.00;0.00;;;36.10;24.80;;;;;;5107564;28;20110;-72
2022/07/21 10:50:39;;;;;;;0.00;0.00;;;35.90;24.10;;;;;;5111005;28;20019;-74
2022/07/21 10:53:13;;;;;;;0.00;0.00;;;35.70;24.00;;;;;;5107135;28;20012;-73
2022/07/21 10:55:49;;;;;;;0.00;0.00;;;35.80;24.70;;;;;;5105550;28;20046;-72
2022/07/21 10:58:38;;;;;;;1.23;1.17;;;35.80;24.60;;;;;;5110041;28;20016;-73
2022/07/21 11:01:25;;;;;;;0.05;0.05;;;35.80;23.60;;;;;;5110437;28;20145;-72
2022/07/21 11:04:19;;;;;;;0.00;0.00;;;35.60;23.20;;;;;;5103983;28;20431;-72
2022/07/21 11:06:46;;;;;;;0.00;0.00;;;35.60;22.60;;;;;;5108861;28;20069;-72
2022/07/21 11:09:17;;;;;;;0.00;0.00;;;35.60;22.50;;;;;;5109052;28;20024;-73
2022/07/21 11:12:03;;;;;;;0.30;0.30;;;35.50;22.60;;;;;;5108446;28;20481;-72
2022/07/21 11:14:44;;;;;;;0.00;0.00;;;35.80;23.70;;;;;;5110222;27;20035;-74
2022/07/21 11:17:40;;;;;;;0.00;0.00;;;35.70;23.40;;;;;;5114850;28;20446;-72
2022/07/21 11:20:15;;;;;;;0.00;0.00;;;35.60;23.50;;;;;;5095030;28;20473;-73
2022/07/21 11:22:52;;;;;;;0.00;0.00;;;35.60;23.90;;;;;;5091762;28;20038;-74
2022/07/21 11:25:18;;;;;;;0.00;0.00;;;35.70;23.30;;;;;;5095476;28;20461;-73
2022/07/21 11:27:44;;;;;;;0.00;0.00;;;35.70;22.80;;;;;;5089166;28;20020;-75
2022/07/21 11:30:11;;;;;;;0.00;0.00;;;35.80;23.70;;;;;;5090003;28;20441;-75
2022/07/21 11:32:37;;;;;;;0.15;0.13;;;35.80;22.90;;;;;;5093825;28;20488;-75
2022/07/21 11:35:07;;;;;;;0.00;0.00;;;35.70;23.30;;;;;;5092125;28;20106;-74
2022/07/21 11:37:36;;;;;;;0.00;0.00;;;35.40;23.00;;;;;;5089829;28;20035;-73
2022/07/21 11:40:14;;;;;;;0.00;0.00;;;35.30;23.10;;;;;;5092181;28;20988;-75
2022/07/21 11:42:42;;;;;;;0.00;0.00;;;35.30;23.60;;;;;;5089696;28;20059;-73
2022/07/21 11:45:09;;;;;;;0.00;0.00;;;35.30;22.70;;;;;;5095868;28;20027;-74
2022/07/21 11:47:36;;;;;;;0.00;0.00;;;35.50;22.90;;;;;;5093213;28;20039;-74
2022/07/21 11:50:06;;;;;;;0.00;0.00;;;35.40;23.20;;;;;;5085068;28;20028;-74
2022/07/21 11:52:36;;;;;;;0.00;0.00;;;35.40;21.20;;;;;;5089754;28;20020;-74
2022/07/21 11:55:05;;;;;;;0.00;0.00;;;35.40;22.80;;;;;;5095506;28;20041;-74
2022/07/21 11:57:31;;;;;;;0.00;0.00;;;35.60;23.70;;;;;;5089003;28;20024;-74
2022/07/21 11:59:58;;;;;;;0.10;0.10;;;35.50;23.40;;;;;;5089868;28;20031;-75
2022/07/21 12:02:27;;;;;;;0.00;0.00;;;35.40;22.10;;;;;;5091951;28;20385;-74
2022/07/21 12:04:58;;;;;;;0.00;0.00;;;35.40;22.50;;;;;;5089335;28;20024;-74
2022/07/21 12:07:24;;;;;;;0.00;0.00;;;35.40;23.00;;;;;;5096843;28;20415;-74
2022/07/21 12:10:00;;;;;;;0.00;0.00;;;35.30;23.10;;;;;;5095488;28;20032;-75
2022/07/21 12:12:32;;;;;;;0.00;0.00;;;35.20;22.60;;;;;;5089257;28;20347;-75
2022/07/21 12:15:18;;;;;;;0.00;0.00;;;35.20;22.70;;;;;;5091524;28;20028;-75
2022/07/21 12:17:48;;;;;;;0.00;0.00;;;35.20;22.20;;;;;;5088496;28;20123;-75
2022/07/21 12:20:31;;;;;;;0.00;0.00;;;35.20;21.70;;;;;;5088943;28;20054;-74
2022/07/21 12:22:58;;;;;;;0.00;0.00;;;35.10;22.20;;;;;;5087690;28;20484;-74
2022/07/21 12:25:40;;;;;;;0.00;0.00;;;34.90;22.60;;;;;;5090447;28;20409;-75
2022/07/21 12:28:07;;;;;;;0.00;0.00;;;34.80;22.00;;;;;;5089820;28;20034;-75
2022/07/21 12:30:39;;;;;;;0.00;0.00;;;35.00;22.40;;;;;;5090088;28;20488;-75
2022/07/21 12:33:14;;;;;;;0.00;0.00;;;34.90;22.80;;;;;;5088026;28;20528;-75
2022/07/21 12:35:43;;;;;;;0.00;0.00;;;34.90;23.30;;;;;;5091442;28;20020;-75
2022/07/21 12:38:14;;;;;;;0.00;0.00;;;34.90;24.10;;;;;;5091517;28;20024;-75
2022/07/21 12:40:46;;;;;;;0.00;0.00;;;35.00;23.20;;;;;;5086394;28;20352;-75
2022/07/21 12:43:18;;;;;;;0.00;0.00;;;34.80;23.50;;;;;;5086573;28;20064;-75
2022/07/21 12:45:53;;;;;;;0.00;0.00;;;34.90;23.40;;;;;;5091350;28;20482;-73
2022/07/21 12:48:25;;;;;;;0.00;0.00;;;34.90;23.80;;;;;;5096402;28;20068;-75
2022/07/21 12:51:23;;;;;;;0.00;0.00;;;34.70;23.30;;;;;;5091370;28;20340;-74
2022/07/21 12:53:54;;;;;;;0.00;0.00;;;34.70;24.40;;;;;;5091604;28;20040;-74
2022/07/21 12:56:28;;;;;;;0.00;0.00;;;34.80;23.30;;;;;;5091171;28;20026;-75
2022/07/21 12:58:58;;;;;;;0.00;0.00;;;34.80;23.70;;;;;;5091215;28;20409;-76
2022/07/21 13:01:25;;;;;;;0.00;0.00;;;34.60;25.30;;;;;;5089961;28;20049;-74
2022/07/21 13:03:53;;;;;;;0.00;0.00;;;34.70;24.40;;;;;;5093225;28;20408;-75
2022/07/21 13:06:19;;;;;;;0.00;0.00;;;34.70;24.60;;;;;;5091265;28;20363;-74
2022/07/21 13:08:46;;;;;;;0.00;0.00;;;34.60;24.60;;;;;;5097439;28;20109;-75
2022/07/21 13:11:15;;;;;;;0.00;0.00;;;34.40;25.00;;;;;;5097944;28;20015;-74
2022/07/21 13:13:42;;;;;;;0.00;0.00;;;34.40;24.60;;;;;;5100708;28;20016;-74
2022/07/21 13:16:08;;;;;;;0.00;0.00;;;34.40;23.80;;;;;;5095793;28;20028;-75
2022/07/21 13:18:34;;;;;;;0.00;0.00;;;34.30;24.50;;;;;;5087254;28;20518;-74